sensor_id;sensor_type;location;lat;lon;timestamp;P1;durP1;ratioP1;P2;durP2;ratioP2
41167;SDS011;26906;45.658;9.272;2023-05-23T05:37:45;14.38;;;10.48;;
41167;SDS011;26906;45.658;9.272;2023-05-23T05:40:12;13.73;;;9.65;;
41167;SDS011;26906;45.658;9.272;2023-05-23T05:42:40;22.60;;;10.60;;
41167;SDS011;26906;45.658;9.272;2023-05-23T05:45:08;15.05;;;9.75;;
41167;SDS011;26906;45.658;9.272;2023-05-23T05:47:36;10.93;;;9.25;;
41167;SDS011;26906;45.658;9.272;2023-05-23T05:50:03;14.40;;;9.43;;
41167;SDS011;26906;45.658;9.272;2023-05-23T05:52:31;15.38;;;9.80;;
41167;SDS011;26906;45.658;9.272;2023-05-23T05:55:01;13.30;;;9.35;;
41167;SDS011;26906;45.658;9.272;2023-05-23T05:57:26;17.58;;;9.40;;
41167;SDS011;26906;45.658;9.272;2023-05-23T05:59:53;10.90;;;9.73;;
41167;SDS011;26906;45.658;9.272;2023-05-23T06:02:19;15.48;;;9.40;;
41167;SDS011;26906;45.658;9.272;2023-05-23T06:04:45;14.98;;;9.80;;
41167;SDS011;26906;45.658;9.272;2023-05-23T06:07:11;19.52;;;9.38;;
41167;SDS011;26906;45.658;9.272;2023-05-23T06:09:36;23.50;;;13.63;;
41167;SDS011;26906;45.658;9.272;2023-05-23T06:12:02;16.88;;;10.38;;
41167;SDS011;26906;45.658;9.272;2023-05-23T06:14:28;346.35;;;42.05;;
41167;SDS011;26906;45.658;9.272;2023-05-23T06:16:54;45.25;;;12.77;;
41167;SDS011;26906;45.658;9.272;2023-05-23T06:19:20;108.25;;;19.58;;
41167;SDS011;26906;45.658;9.272;2023-05-23T06:21:45;13.38;;;10.25;;
41167;SDS011;26906;45.658;9.272;2023-05-23T06:24:12;14.63;;;10.98;;
41167;SDS011;26906;45.658;9.272;2023-05-23T06:26:39;12.98;;;10.07;;
41167;SDS011;26906;45.658;9.272;2023-05-23T06:29:06;13.77;;;10.48;;
41167;SDS011;26906;45.658;9.272;2023-05-23T06:31:33;12.10;;;10.50;;
41167;SDS011;26906;45.658;9.272;2023-05-23T06:33:59;11.30;;;10.05;;
41167;SDS011;26906;45.658;9.272;2023-05-23T06:36:25;14.45;;;10.85;;
41167;SDS011;26906;45.658;9.272;2023-05-23T06:38:50;14.05;;;9.98;;
41167;SDS011;26906;45.658;9.272;2023-05-23T06:41:16;15.07;;;9.18;;
41167;SDS011;26906;45.658;9.272;2023-05-23T06:43:42;16.10;;;9.93;;
41167;SDS011;26906;45.658;9.272;2023-05-23T06:46:12;17.63;;;9.93;;
41167;SDS011;26906;45.658;9.272;2023-05-23T06:48:38;12.05;;;9.63;;
41167;SDS011;26906;45.658;9.272;2023-05-23T06:51:04;12.43;;;9.32;;
41167;SDS011;26906;45.658;9.272;2023-05-23T06:53:30;11.93;;;9.73;;
41167;SDS011;26906;45.658;9.272;2023-05-23T06:55:56;11.32;;;8.48;;
41167;SDS011;26906;45.658;9.272;2023-05-23T06:58:22;13.77;;;9.02;;
41167;SDS011;26906;45.658;9.272;2023-05-23T07:00:49;12.15;;;8.98;;
41167;SDS011;26906;45.658;9.272;2023-05-23T07:03:22;15.30;;;8.65;;
41167;SDS011;26906;45.658;9.272;2023-05-23T07:05:48;36.85;;;10.95;;
41167;SDS011;26906;45.658;9.272;2023-05-23T07:08:16;12.43;;;9.00;;
41167;SDS011;26906;45.658;9.272;2023-05-23T07:10:53;10.98;;;8.85;;
41167;SDS011;26906;45.658;9.272;2023-05-23T07:13:41;13.75;;;9.23;;
41167;SDS011;26906;45.658;9.272;2023-05-23T07:16:11;16.13;;;8.35;;
41167;SDS011;26906;45.658;9.272;2023-05-23T07:18:48;15.85;;;8.20;;
41167;SDS011;26906;45.658;9.272;2023-05-23T07:21:14;13.18;;;7.97;;
41167;SDS011;26906;45.658;9.272;2023-05-23T07:23:40;9.55;;;7.63;;
41167;SDS011;26906;45.658;9.272;2023-05-23T07:26:05;13.48;;;8.30;;
41167;SDS011;26906;45.658;9.272;2023-05-23T07:28:39;13.45;;;8.75;;
41167;SDS011;26906;45.658;9.272;2023-05-23T07:31:06;11.10;;;8.60;;
41167;SDS011;26906;45.658;9.272;2023-05-23T07:33:33;11.15;;;8.20;;
41167;SDS011;26906;45.658;9.272;2023-05-23T07:36:02;15.43;;;9.40;;
41167;SDS011;26906;45.658;9.272;2023-05-23T07:38:28;31.13;;;9.70;;
41167;SDS011;26906;45.658;9.272;2023-05-23T07:40:54;11.90;;;8.43;;
41167;SDS011;26906;45.658;9.272;2023-05-23T07:43:21;12.30;;;9.25;;
41167;SDS011;26906;45.658;9.272;2023-05-23T07:45:46;12.50;;;9.32;;
41167;SDS011;26906;45.658;9.272;2023-05-23T07:48:12;13.85;;;10.27;;
41167;SDS011;26906;45.658;9.272;2023-05-23T07:50:41;15.93;;;13.48;;
41167;SDS011;26906;45.658;9.272;2023-05-23T07:53:07;20.00;;;10.00;;
41167;SDS011;26906;45.658;9.272;2023-05-23T07:55:34;13.13;;;10.25;;
41167;SDS011;26906;45.658;9.272;2023-05-23T07:58:00;19.95;;;10.00;;
41167;SDS011;26906;45.658;9.272;2023-05-23T08:00:27;12.43;;;8.63;;
41167;SDS011;26906;45.658;9.272;2023-05-23T08:02:59;13.93;;;8.52;;
41167;SDS011;26906;45.658;9.272;2023-05-23T08:05:30;12.95;;;7.93;;
41167;SDS011;26906;45.658;9.272;2023-05-23T08:07:56;12.68;;;8.30;;
41167;SDS011;26906;45.658;9.272;2023-05-23T08:10:23;12.68;;;9.23;;
41167;SDS011;26906;45.658;9.272;2023-05-23T08:12:55;17.02;;;8.52;;
41167;SDS011;26906;45.658;9.272;2023-05-23T08:15:24;9.27;;;7.13;;
41167;SDS011;26906;45.658;9.272;2023-05-23T08:17:54;7.93;;;6.85;;
41167;SDS011;26906;45.658;9.272;2023-05-23T08:20:21;9.38;;;7.28;;
41167;SDS011;26906;45.658;9.272;2023-05-23T08:22:56;15.82;;;7.88;;
41167;SDS011;26906;45.658;9.272;2023-05-23T08:25:23;9.88;;;7.53;;
41167;SDS011;26906;45.658;9.272;2023-05-23T08:27:49;10.38;;;7.28;;
41167;SDS011;26906;45.658;9.272;2023-05-23T08:30:37;8.40;;;7.03;;
41167;SDS011;26906;45.658;9.272;2023-05-23T08:33:03;13.20;;;7.57;;
41167;SDS011;26906;45.658;9.272;2023-05-23T08:35:30;10.63;;;7.55;;
41167;SDS011;26906;45.658;9.272;2023-05-23T08:38:04;11.75;;;7.75;;
41167;SDS011;26906;45.658;9.272;2023-05-23T08:40:34;10.15;;;7.90;;
41167;SDS011;26906;45.658;9.272;2023-05-23T08:43:08;12.30;;;7.78;;
41167;SDS011;26906;45.658;9.272;2023-05-23T08:45:36;15.30;;;8.15;;
41167;SDS011;26906;45.658;9.272;2023-05-23T08:48:02;15.25;;;7.38;;
41167;SDS011;26906;45.658;9.272;2023-05-23T08:50:35;16.73;;;7.95;;
41167;SDS011;26906;45.658;9.272;2023-05-23T08:53:04;19.00;;;8.40;;
41167;SDS011;26906;45.658;9.272;2023-05-23T08:55:33;16.55;;;8.35;;
41167;SDS011;26906;45.658;9.272;2023-05-23T08:58:00;10.73;;;8.35;;
41167;SDS011;26906;45.658;9.272;2023-05-23T09:00:46;11.85;;;8.20;;
41167;SDS011;26906;45.658;9.272;2023-05-23T09:03:12;11.43;;;8.27;;
41167;SDS011;26906;45.658;9.272;2023-05-23T09:05:48;13.90;;;8.73;;
41167;SDS011;26906;45.658;9.272;2023-05-23T09:08:15;16.42;;;9.50;;
41167;SDS011;26906;45.658;9.272;2023-05-23T09:10:41;10.32;;;7.88;;
41167;SDS011;26906;45.658;9.272;2023-05-23T09:13:08;10.70;;;8.35;;
41167;SDS011;26906;45.658;9.272;2023-05-23T09:15:35;12.70;;;8.45;;
41167;SDS011;26906;45.658;9.272;2023-05-23T09:18:02;10.13;;;8.70;;
41167;SDS011;26906;45.658;9.272;2023-05-23T09:20:29;9.88;;;8.57;;
41167;SDS011;26906;45.658;9.272;2023-05-23T09:23:00;11.77;;;8.27;;
41167;SDS011;26906;45.658;9.272;2023-05-23T09:25:30;17.60;;;9.00;;
41167;SDS011;26906;45.658;9.272;2023-05-23T09:27:57;10.48;;;7.57;;
41167;SDS011;26906;45.658;9.272;2023-05-23T09:30:24;15.48;;;7.95;;
41167;SDS011;26906;45.658;9.272;2023-05-23T09:32:57;13.77;;;8.95;;
41167;SDS011;26906;45.658;9.272;2023-05-23T09:35:24;13.57;;;8.27;;
41167;SDS011;26906;45.658;9.272;2023-05-23T09:37:53;28.00;;;10.02;;
41167;SDS011;26906;45.658;9.272;2023-05-23T09:40:20;11.38;;;9.18;;
41167;SDS011;26906;45.658;9.272;2023-05-23T09:43:00;14.85;;;10.15;;
41167;SDS011;26906;45.658;9.272;2023-05-23T09:45:28;13.13;;;9.30;;
41167;SDS011;26906;45.658;9.272;2023-05-23T09:47:55;15.52;;;9.15;;
41167;SDS011;26906;45.658;9.272;2023-05-23T09:50:21;15.52;;;9.00;;
41167;SDS011;26906;45.658;9.272;2023-05-23T09:52:48;16.90;;;9.15;;
41167;SDS011;26906;45.658;9.272;2023-05-23T09:55:15;12.68;;;8.65;;
41167;SDS011;26906;45.658;9.272;2023-05-23T09:57:41;11.77;;;9.80;;
41167;SDS011;26906;45.658;9.272;2023-05-23T10:00:08;13.85;;;9.40;;
41167;SDS011;26906;45.658;9.272;2023-05-23T10:02:51;12.43;;;8.35;;
41167;SDS011;26906;45.658;9.272;2023-05-23T10:05:26;10.27;;;8.77;;
41167;SDS011;26906;45.658;9.272;2023-05-23T10:07:57;13.13;;;9.02;;
41167;SDS011;26906;45.658;9.272;2023-05-23T10:10:30;16.35;;;8.40;;
41167;SDS011;26906;45.658;9.272;2023-05-23T10:12:57;17.77;;;8.48;;
41167;SDS011;26906;45.658;9.272;2023-05-23T10:15:26;12.25;;;7.63;;
41167;SDS011;26906;45.658;9.272;2023-05-23T10:20:34;7.85;;;6.82;;
41167;SDS011;26906;45.658;9.272;2023-05-23T10:23:03;11.68;;;7.72;;
41167;SDS011;26906;45.658;9.272;2023-05-23T10:25:29;8.27;;;7.15;;
41167;SDS011;26906;45.658;9.272;2023-05-23T10:27:58;9.38;;;8.05;;
41167;SDS011;26906;45.658;9.272;2023-05-23T10:30:27;10.05;;;7.78;;
41167;SDS011;26906;45.658;9.272;2023-05-23T10:32:56;9.23;;;7.38;;
41167;SDS011;26906;45.658;9.272;2023-05-23T10:35:46;8.02;;;6.32;;
41167;SDS011;26906;45.658;9.272;2023-05-23T10:38:35;13.35;;;6.47;;
41167;SDS011;26906;45.658;9.272;2023-05-23T10:46:50;10.82;;;7.15;;
41167;SDS011;26906;45.658;9.272;2023-05-23T10:49:36;7.78;;;6.82;;
41167;SDS011;26906;45.658;9.272;2023-05-23T10:52:06;9.07;;;6.43;;
41167;SDS011;26906;45.658;9.272;2023-05-23T10:54:41;11.23;;;7.45;;
41167;SDS011;26906;45.658;9.272;2023-05-23T10:57:09;12.68;;;7.90;;
41167;SDS011;26906;45.658;9.272;2023-05-23T10:59:37;10.95;;;8.23;;
41167;SDS011;26906;45.658;9.272;2023-05-23T11:02:05;18.73;;;7.97;;
41167;SDS011;26906;45.658;9.272;2023-05-23T11:04:40;9.60;;;7.40;;
41167;SDS011;26906;45.658;9.272;2023-05-23T11:07:08;9.40;;;6.93;;
41167;SDS011;26906;45.658;9.272;2023-05-23T11:10:09;9.88;;;7.80;;
41167;SDS011;26906;45.658;9.272;2023-05-23T11:12:40;10.40;;;7.40;;
41167;SDS011;26906;45.658;9.272;2023-05-23T11:17:51;13.13;;;6.97;;
41167;SDS011;26906;45.658;9.272;2023-05-23T11:20:18;8.85;;;6.65;;
41167;SDS011;26906;45.658;9.272;2023-05-23T11:23:21;7.90;;;6.20;;
41167;SDS011;26906;45.658;9.272;2023-05-23T11:25:43;8.40;;;6.47;;
41167;SDS011;26906;45.658;9.272;2023-05-23T11:28:10;11.85;;;7.15;;
41167;SDS011;26906;45.658;9.272;2023-05-23T11:30:37;13.98;;;7.82;;
41167;SDS011;26906;45.658;9.272;2023-05-23T11:33:07;11.90;;;6.57;;
41167;SDS011;26906;45.658;9.272;2023-05-23T11:35:41;11.45;;;6.53;;
41167;SDS011;26906;45.658;9.272;2023-05-23T11:38:12;8.43;;;6.68;;
41167;SDS011;26906;45.658;9.272;2023-05-23T11:40:39;8.45;;;6.35;;
41167;SDS011;26906;45.658;9.272;2023-05-23T11:43:06;10.27;;;5.85;;
41167;SDS011;26906;45.658;9.272;2023-05-23T11:45:34;11.93;;;6.43;;
41167;SDS011;26906;45.658;9.272;2023-05-23T11:48:11;7.22;;;5.57;;
41167;SDS011;26906;45.658;9.272;2023-05-23T11:50:42;6.70;;;6.00;;
41167;SDS011;26906;45.658;9.272;2023-05-23T11:53:12;7.50;;;5.95;;
41167;SDS011;26906;45.658;9.272;2023-05-23T11:55:47;7.43;;;5.03;;
41167;SDS011;26906;45.658;9.272;2023-05-23T11:58:14;8.18;;;5.45;;
41167;SDS011;26906;45.658;9.272;2023-05-23T12:00:43;8.88;;;5.10;;
41167;SDS011;26906;45.658;9.272;2023-05-23T12:03:09;7.55;;;5.00;;
41167;SDS011;26906;45.658;9.272;2023-05-23T12:05:35;6.88;;;5.18;;
41167;SDS011;26906;45.658;9.272;2023-05-23T12:08:01;7.28;;;5.35;;
41167;SDS011;26906;45.658;9.272;2023-05-23T12:10:27;6.13;;;5.28;;
41167;SDS011;26906;45.658;9.272;2023-05-23T12:12:53;8.35;;;5.40;;
41167;SDS011;26906;45.658;9.272;2023-05-23T12:15:24;7.80;;;5.95;;
41167;SDS011;26906;45.658;9.272;2023-05-23T12:36:25;6.97;;;5.82;;
41167;SDS011;26906;45.658;9.272;2023-05-23T12:39:01;8.55;;;6.28;;
41167;SDS011;26906;45.658;9.272;2023-05-23T12:41:27;11.93;;;7.20;;
41167;SDS011;26906;45.658;9.272;2023-05-23T12:43:53;9.63;;;5.90;;
41167;SDS011;26906;45.658;9.272;2023-05-23T12:46:20;6.93;;;5.38;;
41167;SDS011;26906;45.658;9.272;2023-05-23T12:48:48;9.00;;;6.00;;
41167;SDS011;26906;45.658;9.272;2023-05-23T12:51:14;10.15;;;6.20;;
41167;SDS011;26906;45.658;9.272;2023-05-23T12:53:40;10.80;;;5.85;;
41167;SDS011;26906;45.658;9.272;2023-05-23T12:56:06;7.50;;;5.68;;
41167;SDS011;26906;45.658;9.272;2023-05-23T12:58:31;6.85;;;5.53;;
41167;SDS011;26906;45.658;9.272;2023-05-23T13:00:58;8.70;;;5.28;;
41167;SDS011;26906;45.658;9.272;2023-05-23T13:03:24;8.32;;;5.95;;
41167;SDS011;26906;45.658;9.272;2023-05-23T13:05:52;10.75;;;5.63;;
41167;SDS011;26906;45.658;9.272;2023-05-23T13:08:18;9.55;;;5.78;;
41167;SDS011;26906;45.658;9.272;2023-05-23T13:10:44;7.07;;;6.10;;
41167;SDS011;26906;45.658;9.272;2023-05-23T13:13:10;5.57;;;5.07;;
41167;SDS011;26906;45.658;9.272;2023-05-23T13:15:36;9.77;;;6.20;;
41167;SDS011;26906;45.658;9.272;2023-05-23T13:18:02;10.85;;;5.72;;
41167;SDS011;26906;45.658;9.272;2023-05-23T13:20:28;9.23;;;5.80;;
41167;SDS011;26906;45.658;9.272;2023-05-23T13:22:55;7.32;;;5.78;;
41167;SDS011;26906;45.658;9.272;2023-05-23T13:25:21;10.68;;;7.13;;
41167;SDS011;26906;45.658;9.272;2023-05-23T13:27:47;7.53;;;5.22;;
41167;SDS011;26906;45.658;9.272;2023-05-23T13:30:13;9.02;;;6.70;;
41167;SDS011;26906;45.658;9.272;2023-05-23T13:32:39;8.98;;;6.20;;
41167;SDS011;26906;45.658;9.272;2023-05-23T13:35:05;10.68;;;6.20;;
41167;SDS011;26906;45.658;9.272;2023-05-23T13:37:30;8.15;;;5.35;;
41167;SDS011;26906;45.658;9.272;2023-05-23T13:39:56;7.05;;;6.03;;
41167;SDS011;26906;45.658;9.272;2023-05-23T13:42:22;7.47;;;6.20;;
41167;SDS011;26906;45.658;9.272;2023-05-23T13:44:47;8.93;;;5.90;;
41167;SDS011;26906;45.658;9.272;2023-05-23T13:47:13;11.35;;;6.45;;
41167;SDS011;26906;45.658;9.272;2023-05-23T13:49:42;7.97;;;5.95;;
41167;SDS011;26906;45.658;9.272;2023-05-23T13:52:08;15.23;;;5.97;;
41167;SDS011;26906;45.658;9.272;2023-05-23T13:54:34;6.68;;;6.03;;
41167;SDS011;26906;45.658;9.272;2023-05-23T13:57:00;7.45;;;5.78;;
41167;SDS011;26906;45.658;9.272;2023-05-23T13:59:26;9.20;;;6.47;;
41167;SDS011;26906;45.658;9.272;2023-05-23T14:01:52;8.60;;;6.40;;
41167;SDS011;26906;45.658;9.272;2023-05-23T14:04:18;10.35;;;6.63;;
41167;SDS011;26906;45.658;9.272;2023-05-23T14:06:44;10.35;;;6.32;;
41167;SDS011;26906;45.658;9.272;2023-05-23T14:09:09;7.45;;;5.97;;
41167;SDS011;26906;45.658;9.272;2023-05-23T14:11:37;11.65;;;6.18;;
41167;SDS011;26906;45.658;9.272;2023-05-23T14:14:03;12.38;;;6.35;;
41167;SDS011;26906;45.658;9.272;2023-05-23T14:16:29;9.70;;;6.65;;
41167;SDS011;26906;45.658;9.272;2023-05-23T14:18:55;7.70;;;5.45;;
41167;SDS011;26906;45.658;9.272;2023-05-23T14:21:21;9.63;;;5.95;;
41167;SDS011;26906;45.658;9.272;2023-05-23T14:23:46;10.57;;;6.50;;
41167;SDS011;26906;45.658;9.272;2023-05-23T14:26:12;13.23;;;7.05;;
41167;SDS011;26906;45.658;9.272;2023-05-23T14:28:38;11.70;;;6.82;;
41167;SDS011;26906;45.658;9.272;2023-05-23T14:31:04;9.45;;;6.10;;
41167;SDS011;26906;45.658;9.272;2023-05-23T14:33:30;11.18;;;5.82;;
41167;SDS011;26906;45.658;9.272;2023-05-23T14:35:55;21.13;;;6.25;;
41167;SDS011;26906;45.658;9.272;2023-05-23T14:38:21;27.63;;;7.80;;
41167;SDS011;26906;45.658;9.272;2023-05-23T14:40:47;9.50;;;6.55;;
41167;SDS011;26906;45.658;9.272;2023-05-23T14:43:13;12.07;;;5.90;;
41167;SDS011;26906;45.658;9.272;2023-05-23T14:45:39;9.05;;;6.03;;
41167;SDS011;26906;45.658;9.272;2023-05-23T14:48:06;12.00;;;5.88;;
41167;SDS011;26906;45.658;9.272;2023-05-23T14:50:32;9.38;;;5.88;;
41167;SDS011;26906;45.658;9.272;2023-05-23T14:52:57;11.25;;;6.22;;
41167;SDS011;26906;45.658;9.272;2023-05-23T14:55:24;18.45;;;7.47;;
41167;SDS011;26906;45.658;9.272;2023-05-23T14:57:49;15.35;;;6.72;;
41167;SDS011;26906;45.658;9.272;2023-05-23T15:00:15;9.25;;;6.07;;
41167;SDS011;26906;45.658;9.272;2023-05-23T15:02:42;8.32;;;6.20;;
41167;SDS011;26906;45.658;9.272;2023-05-23T15:05:08;11.07;;;5.85;;
41167;SDS011;26906;45.658;9.272;2023-05-23T15:07:34;10.35;;;6.10;;
41167;SDS011;26906;45.658;9.272;2023-05-23T15:10:00;8.77;;;6.05;;
41167;SDS011;26906;45.658;9.272;2023-05-23T15:12:27;9.52;;;6.05;;
41167;SDS011;26906;45.658;9.272;2023-05-23T15:14:52;9.20;;;5.85;;
41167;SDS011;26906;45.658;9.272;2023-05-23T15:17:18;15.55;;;6.30;;
41167;SDS011;26906;45.658;9.272;2023-05-23T15:19:46;8.95;;;5.70;;
41167;SDS011;26906;45.658;9.272;2023-05-23T15:22:11;7.10;;;6.28;;
41167;SDS011;26906;45.658;9.272;2023-05-23T15:24:37;8.90;;;5.95;;
41167;SDS011;26906;45.658;9.272;2023-05-23T15:27:03;6.65;;;5.50;;
41167;SDS011;26906;45.658;9.272;2023-05-23T15:29:29;9.45;;;6.47;;
41167;SDS011;26906;45.658;9.272;2023-05-23T15:31:57;9.13;;;6.30;;
41167;SDS011;26906;45.658;9.272;2023-05-23T15:34:24;7.85;;;6.45;;
41167;SDS011;26906;45.658;9.272;2023-05-23T15:36:50;10.27;;;6.80;;
41167;SDS011;26906;45.658;9.272;2023-05-23T15:39:17;7.25;;;6.40;;
41167;SDS011;26906;45.658;9.272;2023-05-23T15:41:42;12.98;;;6.30;;
41167;SDS011;26906;45.658;9.272;2023-05-23T15:44:08;9.23;;;7.07;;
41167;SDS011;26906;45.658;9.272;2023-05-23T15:46:34;9.18;;;6.68;;
41167;SDS011;26906;45.658;9.272;2023-05-23T15:49:00;7.45;;;6.60;;
41167;SDS011;26906;45.658;9.272;2023-05-23T15:51:26;8.63;;;6.90;;
41167;SDS011;26906;45.658;9.272;2023-05-23T15:53:52;9.20;;;6.07;;
41167;SDS011;26906;45.658;9.272;2023-05-23T15:56:18;9.57;;;5.93;;
41167;SDS011;26906;45.658;9.272;2023-05-23T15:58:44;7.50;;;5.75;;
41167;SDS011;26906;45.658;9.272;2023-05-23T16:01:10;8.63;;;5.55;;
41167;SDS011;26906;45.658;9.272;2023-05-23T16:03:36;7.40;;;5.78;;
41167;SDS011;26906;45.658;9.272;2023-05-23T16:06:01;10.40;;;5.93;;
41167;SDS011;26906;45.658;9.272;2023-05-23T16:08:28;8.60;;;5.93;;
41167;SDS011;26906;45.658;9.272;2023-05-23T16:10:54;20.60;;;6.20;;
41167;SDS011;26906;45.658;9.272;2023-05-23T16:13:19;10.38;;;6.25;;
41167;SDS011;26906;45.658;9.272;2023-05-23T16:15:45;8.77;;;5.88;;
41167;SDS011;26906;45.658;9.272;2023-05-23T16:18:11;12.10;;;7.60;;
41167;SDS011;26906;45.658;9.272;2023-05-23T16:20:38;8.45;;;7.47;;
41167;SDS011;26906;45.658;9.272;2023-05-23T16:23:03;9.98;;;7.72;;
41167;SDS011;26906;45.658;9.272;2023-05-23T16:25:29;11.23;;;7.55;;
41167;SDS011;26906;45.658;9.272;2023-05-23T16:27:55;9.63;;;7.18;;
41167;SDS011;26906;45.658;9.272;2023-05-23T16:30:20;10.45;;;7.78;;
41167;SDS011;26906;45.658;9.272;2023-05-23T16:32:46;10.40;;;7.72;;
41167;SDS011;26906;45.658;9.272;2023-05-23T16:35:12;13.07;;;8.00;;
41167;SDS011;26906;45.658;9.272;2023-05-23T16:37:37;8.45;;;7.18;;
41167;SDS011;26906;45.658;9.272;2023-05-23T16:40:04;9.15;;;7.90;;
41167;SDS011;26906;45.658;9.272;2023-05-23T16:42:30;9.27;;;7.82;;
41167;SDS011;26906;45.658;9.272;2023-05-23T16:44:56;12.68;;;8.32;;
41167;SDS011;26906;45.658;9.272;2023-05-23T16:47:21;10.30;;;7.60;;
41167;SDS011;26906;45.658;9.272;2023-05-23T16:49:47;12.02;;;7.72;;
41167;SDS011;26906;45.658;9.272;2023-05-23T16:52:13;9.25;;;7.75;;
41167;SDS011;26906;45.658;9.272;2023-05-23T16:54:38;13.60;;;7.85;;
41167;SDS011;26906;45.658;9.272;2023-05-23T16:57:04;12.07;;;8.13;;
41167;SDS011;26906;45.658;9.272;2023-05-23T16:59:30;14.35;;;8.63;;
41167;SDS011;26906;45.658;9.272;2023-05-23T17:01:56;14.57;;;7.95;;
41167;SDS011;26906;45.658;9.272;2023-05-23T17:04:25;11.63;;;8.60;;
41167;SDS011;26906;45.658;9.272;2023-05-23T17:06:51;11.75;;;8.23;;
41167;SDS011;26906;45.658;9.272;2023-05-23T17:09:16;10.82;;;8.65;;
41167;SDS011;26906;45.658;9.272;2023-05-23T17:11:43;11.02;;;8.60;;
41167;SDS011;26906;45.658;9.272;2023-05-23T17:14:08;11.73;;;8.23;;
41167;SDS011;26906;45.658;9.272;2023-05-23T17:16:34;16.35;;;8.75;;
41167;SDS011;26906;45.658;9.272;2023-05-23T17:19:00;10.43;;;7.95;;
41167;SDS011;26906;45.658;9.272;2023-05-23T17:21:28;12.00;;;7.13;;
41167;SDS011;26906;45.658;9.272;2023-05-23T17:23:55;7.80;;;5.82;;
41167;SDS011;26906;45.658;9.272;2023-05-23T17:26:21;9.35;;;5.85;;
41167;SDS011;26906;45.658;9.272;2023-05-23T17:28:46;7.43;;;5.88;;
41167;SDS011;26906;45.658;9.272;2023-05-23T17:31:12;8.70;;;6.47;;
41167;SDS011;26906;45.658;9.272;2023-05-23T17:33:38;12.73;;;5.55;;
41167;SDS011;26906;45.658;9.272;2023-05-23T17:36:04;8.90;;;5.13;;
41167;SDS011;26906;45.658;9.272;2023-05-23T17:38:30;6.78;;;5.13;;
41167;SDS011;26906;45.658;9.272;2023-05-23T17:40:55;7.88;;;4.72;;
41167;SDS011;26906;45.658;9.272;2023-05-23T17:43:21;4.75;;;4.07;;
41167;SDS011;26906;45.658;9.272;2023-05-23T17:45:46;9.93;;;4.30;;
41167;SDS011;26906;45.658;9.272;2023-05-23T17:48:13;8.15;;;4.60;;
41167;SDS011;26906;45.658;9.272;2023-05-23T17:50:39;15.32;;;5.22;;
41167;SDS011;26906;45.658;9.272;2023-05-23T17:53:06;8.68;;;3.83;;
41167;SDS011;26906;45.658;9.272;2023-05-23T17:55:31;5.35;;;4.03;;
41167;SDS011;26906;45.658;9.272;2023-05-23T17:57:57;4.85;;;3.67;;
41167;SDS011;26906;45.658;9.272;2023-05-23T18:00:23;5.80;;;3.67;;
41167;SDS011;26906;45.658;9.272;2023-05-23T18:02:48;3.67;;;3.28;;
41167;SDS011;26906;45.658;9.272;2023-05-23T18:05:15;8.52;;;3.60;;
41167;SDS011;26906;45.658;9.272;2023-05-23T18:07:43;5.53;;;3.45;;
41167;SDS011;26906;45.658;9.272;2023-05-23T18:10:09;9.50;;;4.68;;
41167;SDS011;26906;45.658;9.272;2023-05-23T18:12:35;5.97;;;3.95;;
41167;SDS011;26906;45.658;9.272;2023-05-23T18:15:01;11.68;;;4.60;;
41167;SDS011;26906;45.658;9.272;2023-05-23T18:17:27;4.50;;;4.05;;
41167;SDS011;26906;45.658;9.272;2023-05-23T18:19:52;5.25;;;3.95;;
41167;SDS011;26906;45.658;9.272;2023-05-23T18:22:18;7.30;;;3.80;;
41167;SDS011;26906;45.658;9.272;2023-05-23T18:24:45;7.55;;;4.18;;
41167;SDS011;26906;45.658;9.272;2023-05-23T18:27:11;5.45;;;4.05;;
41167;SDS011;26906;45.658;9.272;2023-05-23T18:29:36;7.63;;;4.28;;
41167;SDS011;26906;45.658;9.272;2023-05-23T18:32:02;4.78;;;3.90;;
41167;SDS011;26906;45.658;9.272;2023-05-23T18:34:28;10.27;;;4.35;;
41167;SDS011;26906;45.658;9.272;2023-05-23T18:36:53;7.40;;;3.65;;
41167;SDS011;26906;45.658;9.272;2023-05-23T18:39:19;9.18;;;4.38;;
41167;SDS011;26906;45.658;9.272;2023-05-23T18:41:45;10.75;;;4.03;;
41167;SDS011;26906;45.658;9.272;2023-05-23T18:44:11;8.07;;;4.60;;
41167;SDS011;26906;45.658;9.272;2023-05-23T18:46:37;9.68;;;4.00;;
41167;SDS011;26906;45.658;9.272;2023-05-23T18:49:03;5.78;;;4.25;;
41167;SDS011;26906;45.658;9.272;2023-05-23T18:51:29;9.40;;;3.92;;
41167;SDS011;26906;45.658;9.272;2023-05-23T18:53:54;7.90;;;3.92;;
41167;SDS011;26906;45.658;9.272;2023-05-23T18:56:20;5.32;;;3.95;;
41167;SDS011;26906;45.658;9.272;2023-05-23T18:58:47;5.53;;;4.43;;
41167;SDS011;26906;45.658;9.272;2023-05-23T19:01:14;4.95;;;4.00;;
41167;SDS011;26906;45.658;9.272;2023-05-23T19:03:40;5.50;;;3.90;;
41167;SDS011;26906;45.658;9.272;2023-05-23T19:06:06;6.47;;;3.90;;
41167;SDS011;26906;45.658;9.272;2023-05-23T19:08:32;7.18;;;4.22;;
41167;SDS011;26906;45.658;9.272;2023-05-23T19:10:58;4.72;;;3.72;;
41167;SDS011;26906;45.658;9.272;2023-05-23T19:13:24;6.15;;;3.78;;
41167;SDS011;26906;45.658;9.272;2023-05-23T19:15:50;5.32;;;3.75;;
41167;SDS011;26906;45.658;9.272;2023-05-23T19:18:16;5.03;;;3.42;;
41167;SDS011;26906;45.658;9.272;2023-05-23T19:20:43;5.35;;;3.60;;
41167;SDS011;26906;45.658;9.272;2023-05-23T19:23:10;7.93;;;4.40;;
41167;SDS011;26906;45.658;9.272;2023-05-23T19:25:36;6.35;;;4.10;;
41167;SDS011;26906;45.658;9.272;2023-05-23T19:28:02;5.43;;;4.38;;
41167;SDS011;26906;45.658;9.272;2023-05-23T19:30:28;6.82;;;3.95;;
41167;SDS011;26906;45.658;9.272;2023-05-23T19:32:53;5.65;;;4.20;;
41167;SDS011;26906;45.658;9.272;2023-05-23T19:35:19;6.50;;;4.10;;
41167;SDS011;26906;45.658;9.272;2023-05-23T19:37:45;5.20;;;4.05;;
41167;SDS011;26906;45.658;9.272;2023-05-23T19:40:13;4.90;;;3.80;;
41167;SDS011;26906;45.658;9.272;2023-05-23T19:42:39;9.68;;;4.80;;
41167;SDS011;26906;45.658;9.272;2023-05-23T19:45:05;6.03;;;3.55;;
41167;SDS011;26906;45.658;9.272;2023-05-23T19:47:31;5.80;;;3.97;;
41167;SDS011;26906;45.658;9.272;2023-05-23T19:49:57;7.30;;;3.80;;
41167;SDS011;26906;45.658;9.272;2023-05-23T19:52:22;5.45;;;3.92;;
41167;SDS011;26906;45.658;9.272;2023-05-23T19:54:48;4.63;;;3.70;;
41167;SDS011;26906;45.658;9.272;2023-05-23T19:57:14;4.75;;;3.80;;
41167;SDS011;26906;45.658;9.272;2023-05-23T19:59:39;6.65;;;4.57;;
41167;SDS011;26906;45.658;9.272;2023-05-23T20:02:06;19.85;;;4.63;;
41167;SDS011;26906;45.658;9.272;2023-05-23T20:04:32;8.10;;;4.32;;
41167;SDS011;26906;45.658;9.272;2023-05-23T20:06:58;5.78;;;4.10;;
41167;SDS011;26906;45.658;9.272;2023-05-23T20:09:24;9.23;;;4.20;;
41167;SDS011;26906;45.658;9.272;2023-05-23T20:11:51;5.80;;;3.40;;
41167;SDS011;26906;45.658;9.272;2023-05-23T20:14:16;8.15;;;3.85;;
41167;SDS011;26906;45.658;9.272;2023-05-23T20:16:44;12.05;;;3.60;;
41167;SDS011;26906;45.658;9.272;2023-05-23T20:19:10;16.45;;;4.50;;
41167;SDS011;26906;45.658;9.272;2023-05-23T20:21:36;10.20;;;4.38;;
41167;SDS011;26906;45.658;9.272;2023-05-23T20:24:03;9.75;;;4.03;;
41167;SDS011;26906;45.658;9.272;2023-05-23T20:26:29;9.10;;;3.83;;
41167;SDS011;26906;45.658;9.272;2023-05-23T20:28:54;7.60;;;3.80;;
41167;SDS011;26906;45.658;9.272;2023-05-23T20:31:20;6.88;;;3.72;;
41167;SDS011;26906;45.658;9.272;2023-05-23T20:33:46;6.72;;;3.90;;
41167;SDS011;26906;45.658;9.272;2023-05-23T20:36:12;8.85;;;4.10;;
41167;SDS011;26906;45.658;9.272;2023-05-23T20:38:37;7.15;;;3.88;;
41167;SDS011;26906;45.658;9.272;2023-05-23T20:41:04;12.98;;;4.28;;
